This is the latest recevied weather packets stored in our database for station/object AF5AA. If no packets are shown the sender has not sent any weather packets the latest 10 day(s).
| Time | Temp. | Humidity | Pressure | Rain* | Wind** | Luminosity | Snow |
|---|---|---|---|---|---|---|---|
| 1778021628 | 28.33° C | 73% | 1004.6 hPa | 0 mm | - | 54 W/m² | - |
| 1778021323 | 28.33° C | 73% | 1004.6 hPa | 0 mm | - | 67 W/m² | - |
| 1778021021 | 28.89° C | 73% | 1004.5 hPa | 0 mm | - | 45 W/m² | - |
| 1778020718 | 28.89° C | 72% | 1004.4 hPa | 0 mm | - | 60 W/m² | - |
| 1778020415 | 28.89° C | 72% | 1004.3 hPa | 0 mm | - | 67 W/m² | - |
| 1778020111 | 28.33° C | 72% | 1004.3 hPa | 0 mm | - | 69 W/m² | - |
| 1778019807 | 28.33° C | 73% | 1004.5 hPa | 0 mm | - | 73 W/m² | - |
| 1778019505 | 28.33° C | 73% | 1004.5 hPa | 0 mm | - | 66 W/m² | - |
| 1778019201 | 28.33° C | 73% | 1004.7 hPa | 0 mm | - | 76 W/m² | - |
| 1778018898 | 28.89° C | 74% | 1004.7 hPa | 0 mm | - | 55 W/m² | - |
| 1778018595 | 28.89° C | 75% | 1004.7 hPa | 0 mm | - | 73 W/m² | - |
| 1778018293 | 28.33° C | 76% | 1004.9 hPa | 0 mm | - | 99 W/m² | - |
| 1778017991 | 28.89° C | 75% | 1005.1 hPa | 0 mm | - | 67 W/m² | - |
| 1778017688 | 28.89° C | 72% | 1004.9 hPa | 0 mm | - | 98 W/m² | - |
| 1778017386 | 29.44° C | 70% | 1004.9 hPa | 0 mm | - | 173 W/m² | - |
| 1778017083 | 29.44° C | 71% | 1005 hPa | 0 mm | - | 81 W/m² | - |
| 1778016781 | 29.44° C | 70% | 1005 hPa | 0 mm | - | 63 W/m² | - |
| 1778016475 | 29.44° C | 70% | 1005.1 hPa | 0 mm | - | 127 W/m² | - |
| 1778016174 | 28.89° C | 70% | 1005 hPa | 0 mm | - | 100 W/m² | - |
| 1778015870 | 28.89° C | 70% | 1005.1 hPa | 0 mm | - | 120 W/m² | - |
| 1778015568 | 28.89° C | 71% | 1005.2 hPa | 0 mm | - | 90 W/m² | - |
| 1778015263 | 28.89° C | 71% | 1005 hPa | 0 mm | - | 143 W/m² | - |
| 1778014961 | 28.89° C | 73% | 1005.3 hPa | 0 mm | - | 88 W/m² | - |
| 1778014658 | 28.33° C | 73% | 1005.2 hPa | 0 mm | - | 157 W/m² | - |
| 1778014356 | 28.89° C | 73% | 1005.3 hPa | 0 mm | - | 128 W/m² | - |
* Rain latest hour (hover to see other rain measurements)
** Current wind speed in m/s (hover to see current wind gust speed)